TMW weather

Tamworth Airport
Tamworth, New South Wales, Australia

Public forecast

Using degrees Celsius for public forecast. Weather courtesy of forecast.io.

METAR (pilot weather report)

Retrieved 2018/11/14 11:00 UTC (17 minutes ago):

YSTW 141100Z AUTO 14003KT 9999 // OVC088 22/11 Q1018 RF00.0/000.0

TAF (pilot weather forecast)

Retrieved 2018/11/14 06:36 UTC (5 hours ago):

TAF YSTW 140444Z 1406/1424 36008KT 9999 -SHRA SCT100 FM141000 06005KT CAVOK